Time;durP1;ratioP1;P1;durP2;ratioP2;P2;SDS_P1;SDS_P2;PMS_P1;PMS_P2;Temp;Humidity;BMP_temperature;BMP_pressure;BME280_temperature;BME280_humidity;BME280_pressure;Samples;Min_cycle;Max_cycle;Signal;HPM_P1;HPM_P2
2021/10/02 00:35:20;;;;;;;1.83;0.70;;;18.80;90.20;;;;;;5092550;28;20089;-76
2021/10/02 00:38:07;;;;;;;1.23;0.57;;;18.80;90.20;;;;;;5092714;28;20027;-76
2021/10/02 00:46:08;;;;;;;1.70;0.50;;;18.80;90.20;;;;;;5092090;28;20407;-76
2021/10/02 00:48:36;;;;;;;1.70;0.63;;;18.80;90.20;;;;;;5092047;28;20020;-76
2021/10/02 00:51:03;;;;;;;2.60;0.98;;;18.80;90.20;;;;;;5091909;28;20039;-77
2021/10/02 00:53:29;;;;;;;3.42;0.70;;;18.80;90.10;;;;;;5091739;28;20020;-76
2021/10/02 00:55:55;;;;;;;3.50;0.65;;;18.80;90.10;;;;;;5091895;28;20130;-76
2021/10/02 00:58:21;;;;;;;1.85;0.63;;;18.80;90.20;;;;;;5091958;28;20028;-76
2021/10/02 01:00:51;;;;;;;1.52;0.60;;;18.80;90.20;;;;;;5107890;28;20028;-77
2021/10/02 01:03:34;;;;;;;2.38;0.52;;;18.80;90.50;;;;;;5092115;28;20020;-76
2021/10/02 01:06:33;;;;;;;2.45;0.60;;;18.70;90.10;;;;;;5092042;28;20020;-76
2021/10/02 01:09:37;;;;;;;3.42;0.60;;;18.70;90.10;;;;;;5091781;28;20028;-76
2021/10/02 01:12:26;;;;;;;2.13;0.70;;;18.70;90.10;;;;;;5083371;28;20093;-76
2021/10/02 01:15:15;;;;;;;1.60;0.65;;;18.70;90.10;;;;;;5091521;28;20038;-77
2021/10/02 01:17:51;;;;;;;0.77;0.50;;;18.70;90.10;;;;;;5107027;28;20048;-76
2021/10/02 01:20:36;;;;;;;;;;;18.70;90.10;;;;;;5092245;28;20391;-76
2021/10/02 01:23:27;;;;;;;1.85;0.60;;;18.70;90.10;;;;;;5091315;28;19941;-76
2021/10/02 01:26:15;;;;;;;1.75;0.65;;;18.70;90.00;;;;;;5091784;28;20024;-76
2021/10/02 01:28:42;;;;;;;1.65;0.60;;;18.70;90.00;;;;;;5091226;28;20032;-76
2021/10/02 01:31:35;;;;;;;1.95;0.63;;;18.70;90.00;;;;;;5091489;28;20032;-76
2021/10/02 01:34:21;;;;;;;2.70;0.60;;;18.70;90.00;;;;;;5091311;28;20063;-76
2021/10/02 01:47:55;;;;;;;2.80;0.50;;;18.60;90.00;;;;;;5091644;28;20039;-76
2021/10/02 01:50:26;;;;;;;2.03;0.60;;;18.60;90.00;;;;;;5090687;28;20452;-76
2021/10/02 01:52:56;;;;;;;1.77;0.60;;;18.60;90.00;;;;;;5091113;28;20066;-76
2021/10/02 01:55:23;;;;;;;1.58;0.50;;;18.60;89.90;;;;;;5090581;28;20020;-76
2021/10/02 01:58:03;;;;;;;1.70;0.77;;;18.60;90.00;;;;;;5089752;28;20032;-76
2021/10/02 02:00:30;;;;;;;2.17;0.60;;;18.60;90.00;;;;;;5090811;28;20491;-76
2021/10/02 02:03:03;;;;;;;1.40;0.70;;;18.60;90.00;;;;;;5091127;28;20117;-76
2021/10/02 02:05:29;;;;;;;2.03;0.90;;;18.60;90.00;;;;;;5090909;28;20103;-76
2021/10/02 02:08:00;;;;;;;1.60;0.70;;;18.60;90.00;;;;;;5106872;28;20027;-76
2021/10/02 02:10:27;;;;;;;4.82;0.90;;;18.50;89.80;;;;;;5090880;28;20162;-76
2021/10/02 02:12:56;;;;;;;1.80;0.70;;;18.50;89.70;;;;;;5090896;28;20066;-76
2021/10/02 02:15:22;;;;;;;3.95;1.10;;;18.60;89.80;;;;;;5090863;28;20103;-76
2021/10/02 02:17:52;;;;;;;3.05;0.90;;;18.50;90.20;;;;;;5091174;28;20017;-76
2021/10/02 02:20:36;;;;;;;2.47;0.75;;;18.50;89.90;;;;;;5090991;28;20483;-76
2021/10/02 02:23:03;;;;;;;2.20;0.60;;;18.50;89.80;;;;;;5106432;28;20142;-76
2021/10/02 02:25:29;;;;;;;1.88;0.88;;;18.50;89.80;;;;;;5090736;28;20031;-77
2021/10/02 02:27:56;;;;;;;2.67;0.70;;;18.50;89.70;;;;;;5090853;28;20025;-76
2021/10/02 02:30:22;;;;;;;1.67;0.70;;;18.50;89.70;;;;;;5090642;28;20024;-77
2021/10/02 02:32:50;;;;;;;2.33;0.85;;;18.50;89.80;;;;;;5090776;28;20035;-77
2021/10/02 02:35:18;;;;;;;3.20;0.80;;;18.50;89.70;;;;;;5091263;28;20432;-76
2021/10/02 02:37:44;;;;;;;2.55;0.80;;;18.50;89.60;;;;;;5106612;28;20069;-76
2021/10/02 02:40:10;;;;;;;2.50;0.80;;;18.50;89.60;;;;;;5090560;28;20032;-76
2021/10/02 02:42:36;;;;;;;3.38;0.88;;;18.50;89.60;;;;;;5090550;28;20036;-76
2021/10/02 02:45:03;;;;;;;3.22;0.80;;;18.50;89.60;;;;;;5090782;28;20051;-76
2021/10/02 02:47:32;;;;;;;1.85;0.70;;;18.40;89.60;;;;;;5090630;28;20028;-77
2021/10/02 02:50:26;;;;;;;2.33;0.90;;;18.50;89.60;;;;;;5090687;28;20016;-76
2021/10/02 02:52:58;;;;;;;2.88;1.02;;;18.40;89.50;;;;;;5090818;28;20032;-76
2021/10/02 02:55:27;;;;;;;3.17;1.05;;;18.40;89.50;;;;;;5090374;28;20028;-76
2021/10/02 02:58:05;;;;;;;2.03;1.15;;;18.40;89.40;;;;;;5090538;28;20395;-77
2021/10/02 03:00:35;;;;;;;1.98;1.00;;;18.40;89.40;;;;;;5090396;28;20028;-77
2021/10/02 03:03:09;;;;;;;3.13;1.33;;;18.40;89.40;;;;;;5090437;28;20019;-76
2021/10/02 03:05:39;;;;;;;2.03;1.15;;;18.40;89.30;;;;;;5090508;28;20552;-76
2021/10/02 03:08:15;;;;;;;2.58;1.08;;;18.40;89.40;;;;;;5094062;28;20085;-76
2021/10/02 03:10:46;;;;;;;1.98;1.00;;;18.40;89.30;;;;;;5093746;28;20024;-77
2021/10/02 03:13:14;;;;;;;3.30;1.38;;;18.40;89.30;;;;;;5094280;28;20028;-76
2021/10/02 03:15:42;;;;;;;2.53;1.30;;;18.40;89.20;;;;;;5093748;28;20030;-77
2021/10/02 03:18:11;;;;;;;4.03;1.80;;;18.40;89.10;;;;;;5093891;28;20035;-76
2021/10/02 03:20:38;;;;;;;4.25;1.30;;;18.40;89.10;;;;;;5093684;28;20020;-76
2021/10/02 03:23:05;;;;;;;2.95;1.67;;;18.40;89.20;;;;;;5093726;28;20024;-77
2021/10/02 03:25:32;;;;;;;4.15;1.88;;;18.40;89.10;;;;;;5093677;28;20137;-76
2021/10/02 03:28:01;;;;;;;3.75;1.70;;;18.30;89.10;;;;;;5093652;28;20025;-76
2021/10/02 03:30:30;;;;;;;2.40;1.42;;;18.30;89.00;;;;;;5093471;28;20093;-76
2021/10/02 03:32:56;;;;;;;3.63;2.20;;;18.30;89.00;;;;;;5093720;28;20461;-76
2021/10/02 03:35:23;;;;;;;4.10;2.20;;;18.40;89.10;;;;;;5093356;28;20116;-77
2021/10/02 03:37:50;;;;;;;4.10;2.17;;;18.30;89.10;;;;;;5092393;28;20028;-76
2021/10/02 03:40:19;;;;;;;3.75;2.15;;;18.30;89.10;;;;;;5093995;28;20483;-77
2021/10/02 03:42:48;;;;;;;4.95;2.42;;;18.30;89.10;;;;;;5093874;28;20055;-76
2021/10/02 03:45:15;;;;;;;4.78;2.30;;;18.30;89.20;;;;;;5093792;28;20061;-76
2021/10/02 03:47:41;;;;;;;4.38;2.10;;;18.30;89.20;;;;;;5093210;28;20098;-76
2021/10/02 03:50:07;;;;;;;4.43;2.30;;;18.30;89.20;;;;;;5093198;28;20028;-76
2021/10/02 03:52:33;;;;;;;5.35;2.50;;;18.30;89.10;;;;;;5093163;28;20483;-76
2021/10/02 03:54:59;;;;;;;5.07;2.63;;;18.30;89.30;;;;;;5093052;28;20024;-77
2021/10/02 03:57:24;;;;;;;3.97;2.50;;;18.30;89.20;;;;;;5092745;28;20024;-76
2021/10/02 03:59:50;;;;;;;4.40;2.47;;;18.30;89.30;;;;;;5093129;28;20024;-77
2021/10/02 04:02:16;;;;;;;3.47;2.03;;;18.30;89.20;;;;;;5093371;28;20369;-76
2021/10/02 04:04:41;;;;;;;3.85;2.15;;;18.30;89.10;;;;;;5093369;28;20028;-77
2021/10/02 04:07:07;;;;;;;4.82;2.80;;;18.30;89.10;;;;;;5092853;28;20069;-76
2021/10/02 04:09:33;;;;;;;4.53;2.28;;;18.30;89.20;;;;;;5092501;28;20039;-76
2021/10/02 04:11:58;;;;;;;2.83;1.98;;;18.30;89.20;;;;;;5092806;28;20121;-76
2021/10/02 04:14:24;;;;;;;3.65;2.35;;;18.20;89.10;;;;;;5092743;28;20032;-76
2021/10/02 04:16:50;;;;;;;3.95;2.28;;;18.30;89.20;;;;;;5092480;28;20039;-76
2021/10/02 04:19:16;;;;;;;3.53;2.28;;;18.30;89.20;;;;;;5092955;28;20027;-76
2021/10/02 04:21:41;;;;;;;3.28;2.33;;;18.20;89.10;;;;;;5093004;28;20095;-76
2021/10/02 04:24:07;;;;;;;3.05;1.98;;;18.30;89.10;;;;;;5092396;28;20036;-76
2021/10/02 04:26:33;;;;;;;3.85;2.22;;;18.20;89.10;;;;;;5092387;28;20463;-76
2021/10/02 04:28:59;;;;;;;3.90;2.30;;;18.30;89.10;;;;;;5092573;28;20041;-77
2021/10/02 04:31:24;;;;;;;3.53;2.13;;;18.20;89.00;;;;;;5092056;28;20038;-76
2021/10/02 04:33:50;;;;;;;3.80;2.20;;;18.20;89.00;;;;;;5108092;28;20024;-76
2021/10/02 04:36:16;;;;;;;4.47;2.60;;;18.20;89.70;;;;;;5092672;28;20024;-76
2021/10/02 04:38:42;;;;;;;3.45;2.42;;;18.20;89.00;;;;;;5092578;28;20023;-76
2021/10/02 04:41:09;;;;;;;3.78;2.30;;;18.20;88.90;;;;;;5092468;28;20020;-76
2021/10/02 04:43:39;;;;;;;3.25;2.25;;;18.20;88.90;;;;;;5092011;28;20020;-76
2021/10/02 04:46:04;;;;;;;4.10;2.90;;;18.20;89.00;;;;;;5108063;28;20038;-76
2021/10/02 04:48:30;;;;;;;5.53;2.65;;;18.20;89.00;;;;;;5092062;28;20030;-76
2021/10/02 04:50:56;;;;;;;4.47;2.47;;;18.20;88.90;;;;;;5092120;28;20480;-76
2021/10/02 04:53:21;;;;;;;3.63;2.47;;;18.20;88.90;;;;;;5107306;28;20127;-76
2021/10/02 04:55:47;;;;;;;4.40;2.95;;;18.20;88.90;;;;;;5092112;28;20028;-76
2021/10/02 04:58:13;;;;;;;5.15;2.90;;;18.20;88.90;;;;;;5092328;28;20020;-76
2021/10/02 05:00:38;;;;;;;4.50;3.05;;;18.20;88.90;;;;;;5091659;28;20020;-76
2021/10/02 05:03:04;;;;;;;4.28;3.20;;;18.20;88.90;;;;;;5091811;28;20103;-77
2021/10/02 05:05:30;;;;;;;3.92;2.50;;;18.20;89.60;;;;;;5091540;28;20395;-77
2021/10/02 05:07:55;;;;;;;3.75;2.72;;;18.20;88.90;;;;;;5090745;28;20028;-77
2021/10/02 05:10:21;;;;;;;4.63;2.60;;;18.20;88.90;;;;;;5091568;28;20028;-76
2021/10/02 05:12:47;;;;;;;4.00;2.80;;;18.20;88.90;;;;;;5091835;28;20032;-77
2021/10/02 05:15:12;;;;;;;4.63;3.03;;;18.20;88.90;;;;;;5091941;28;20074;-77
2021/10/02 05:17:38;;;;;;;5.05;2.92;;;18.20;88.90;;;;;;5107223;28;20059;-76
2021/10/02 05:20:05;;;;;;;4.15;2.88;;;18.20;88.90;;;;;;5091547;28;20031;-76
2021/10/02 05:22:31;;;;;;;3.95;2.80;;;18.20;88.90;;;;;;5091125;28;20484;-77
2021/10/02 05:24:56;;;;;;;4.70;2.65;;;18.20;88.90;;;;;;5091759;28;20024;-76
2021/10/02 05:27:22;;;;;;;3.80;2.90;;;18.20;88.90;;;;;;5091427;28;20028;-76
2021/10/02 05:29:48;;;;;;;3.63;2.40;;;18.20;88.90;;;;;;5090855;28;20050;-77
2021/10/02 05:32:15;;;;;;;3.67;2.78;;;18.10;88.70;;;;;;5091802;28;20032;-76
2021/10/02 05:34:41;;;;;;;5.05;2.92;;;18.20;88.80;;;;;;5091049;28;20008;-77
2021/10/02 05:37:07;;;;;;;4.22;2.70;;;18.20;88.90;;;;;;5091503;28;20024;-77
2021/10/02 05:39:33;;;;;;;3.47;2.47;;;18.10;88.70;;;;;;5091198;28;20027;-77
2021/10/02 05:41:59;;;;;;;4.28;2.85;;;18.10;88.80;;;;;;5091559;28;20021;-76
2021/10/02 05:44:25;;;;;;;3.42;2.63;;;18.20;88.90;;;;;;5106884;28;20024;-76
2021/10/02 05:46:50;;;;;;;5.28;3.45;;;18.10;88.70;;;;;;5091418;28;20027;-77
2021/10/02 05:49:16;;;;;;;5.15;2.88;;;18.10;88.70;;;;;;5091422;28;20028;-77
2021/10/02 05:51:42;;;;;;;4.40;2.97;;;18.10;88.70;;;;;;5091330;28;20036;-76
2021/10/02 05:54:09;;;;;;;3.83;2.55;;;18.10;88.80;;;;;;5091215;28;20020;-77
2021/10/02 05:56:38;;;;;;;5.30;2.13;;;18.20;89.00;;;;;;5090934;28;20024;-77
2021/10/02 05:59:04;;;;;;;4.38;3.13;;;18.10;88.90;;;;;;5091191;28;20042;-77
2021/10/02 06:01:30;;;;;;;3.80;2.72;;;18.10;88.90;;;;;;5091043;28;20059;-76
2021/10/02 06:03:56;;;;;;;4.72;2.83;;;18.10;88.90;;;;;;5090970;28;20016;-75
2021/10/02 06:06:22;;;;;;;3.55;2.45;;;18.10;89.00;;;;;;5090799;28;20502;-75
2021/10/02 06:08:48;;;;;;;3.72;2.72;;;18.10;89.10;;;;;;5090765;28;20536;-75
2021/10/02 06:11:14;;;;;;;4.05;2.22;;;18.10;89.10;;;;;;5090547;28;20032;-77
2021/10/02 06:13:40;;;;;;;3.90;2.53;;;18.10;89.10;;;;;;5090809;28;20112;-76
2021/10/02 06:16:06;;;;;;;4.00;3.03;;;18.10;89.20;;;;;;5091049;28;20052;-77
2021/10/02 06:18:32;;;;;;;4.30;2.38;;;18.10;89.00;;;;;;5090968;28;20498;-76
2021/10/02 06:20:58;;;;;;;4.63;2.67;;;18.10;89.10;;;;;;5091084;28;20028;-76
2021/10/02 06:23:26;;;;;;;5.80;2.83;;;18.10;89.20;;;;;;5090672;28;20364;-77
2021/10/02 06:25:51;;;;;;;4.65;2.42;;;18.10;89.30;;;;;;5091039;28;20085;-76
2021/10/02 06:28:17;;;;;;;5.05;2.85;;;18.10;89.20;;;;;;5089333;28;20029;-75
2021/10/02 06:30:43;;;;;;;3.55;2.28;;;18.10;89.10;;;;;;5088202;28;20403;-75
2021/10/02 06:33:08;;;;;;;4.03;2.35;;;18.10;89.10;;;;;;5089274;28;20063;-74
2021/10/02 06:35:34;;;;;;;4.10;2.47;;;18.20;89.30;;;;;;5088892;28;20016;-75
2021/10/02 06:38:02;;;;;;;5.57;2.10;;;18.10;89.20;;;;;;5089216;28;20027;-75
2021/10/02 06:40:27;;;;;;;5.38;2.08;;;18.10;89.20;;;;;;5090897;28;20024;-75
2021/10/02 06:42:53;;;;;;;6.68;2.17;;;18.10;89.20;;;;;;5093059;28;20015;-75
2021/10/02 06:45:20;;;;;;;3.75;2.58;;;18.10;89.30;;;;;;5092823;28;20020;-75
2021/10/02 06:47:45;;;;;;;5.80;2.65;;;18.10;89.20;;;;;;5093311;28;20051;-75
2021/10/02 06:50:11;;;;;;;3.88;2.63;;;18.10;89.30;;;;;;5092715;28;20051;-74
2021/10/02 06:52:37;;;;;;;3.05;2.10;;;18.10;89.30;;;;;;5092743;28;20039;-75
2021/10/02 06:55:03;;;;;;;2.97;1.98;;;18.20;89.30;;;;;;5092778;28;20497;-74
2021/10/02 06:57:29;;;;;;;3.30;2.40;;;18.10;89.20;;;;;;5092230;28;20024;-74
2021/10/02 06:59:55;;;;;;;4.18;2.58;;;18.10;89.30;;;;;;5092685;28;20379;-75
2021/10/02 07:02:20;;;;;;;3.92;2.42;;;18.10;89.20;;;;;;5090825;28;20016;-75
2021/10/02 07:04:49;;;;;;;3.58;2.30;;;18.20;89.30;;;;;;5093217;28;20123;-76
2021/10/02 07:07:15;;;;;;;3.83;2.20;;;18.20;89.30;;;;;;5094255;28;20103;-77
2021/10/02 07:09:41;;;;;;;4.88;2.40;;;18.20;89.30;;;;;;5092120;28;20020;-75
2021/10/02 07:12:07;;;;;;;3.25;2.33;;;18.10;89.30;;;;;;5093872;28;20051;-80
2021/10/02 07:14:32;;;;;;;3.63;2.00;;;18.20;89.40;;;;;;5093379;28;20020;-79
2021/10/02 07:16:58;;;;;;;3.33;2.15;;;18.10;89.40;;;;;;5093599;28;20032;-78
2021/10/02 07:19:24;;;;;;;3.78;2.00;;;18.10;89.60;;;;;;5093321;28;20020;-78
2021/10/02 07:21:50;;;;;;;3.40;2.00;;;18.10;89.50;;;;;;5092926;28;20542;-78
2021/10/02 07:24:15;;;;;;;5.03;2.00;;;18.20;89.50;;;;;;5093260;28;20012;-78
2021/10/02 07:26:43;;;;;;;3.38;2.17;;;18.10;89.30;;;;;;5093255;28;20064;-77
2021/10/02 07:29:09;;;;;;;3.83;2.50;;;18.20;89.50;;;;;;5092738;28;20726;-77
2021/10/02 07:31:35;;;;;;;3.90;2.42;;;18.10;89.30;;;;;;5089850;28;20487;-77
2021/10/02 07:34:01;;;;;;;3.25;2.10;;;18.10;89.30;;;;;;5092264;28;20028;-75
2021/10/02 07:36:28;;;;;;;4.07;1.92;;;18.20;90.00;;;;;;5092598;28;20095;-78
2021/10/02 07:38:55;;;;;;;10.43;2.28;;;18.20;89.30;;;;;;5093481;28;20020;-78
2021/10/02 07:41:21;;;;;;;3.90;2.42;;;18.20;89.60;;;;;;5093144;28;20103;-77
2021/10/02 07:43:54;;;;;;;2.90;2.03;;;18.20;89.60;;;;;;5093023;28;20538;-78
2021/10/02 07:46:21;;;;;;;3.50;1.83;;;18.20;89.40;;;;;;5093314;28;20368;-76
2021/10/02 07:48:49;;;;;;;4.90;2.10;;;18.20;89.60;;;;;;5092390;28;20024;-77
2021/10/02 07:51:15;;;;;;;4.10;2.22;;;18.20;89.50;;;;;;5092606;28;20145;-75
2021/10/02 07:53:41;;;;;;;7.30;2.15;;;18.20;89.60;;;;;;5093095;28;20103;-75
2021/10/02 07:56:08;;;;;;;3.00;1.98;;;18.20;89.60;;;;;;5093067;28;20035;-75
2021/10/02 07:58:34;;;;;;;3.88;1.80;;;18.20;89.90;;;;;;5092818;28;20115;-76
2021/10/02 08:01:00;;;;;;;4.75;2.10;;;18.20;89.90;;;;;;5093019;28;20110;-75
2021/10/02 08:03:25;;;;;;;7.35;3.00;;;18.20;89.80;;;;;;5092958;28;20491;-75
2021/10/02 08:05:52;;;;;;;7.22;3.28;;;18.20;89.90;;;;;;5091875;28;20032;-76
2021/10/02 08:08:19;;;;;;;5.78;4.47;;;18.20;89.70;;;;;;5092702;28;20468;-75
2021/10/02 08:10:47;;;;;;;29.27;23.33;;;18.20;90.00;;;;;;5093062;28;20032;-76
2021/10/02 08:13:14;;;;;;;11.00;7.90;;;18.30;90.10;;;;;;5093322;28;20031;-76
2021/10/02 08:15:45;;;;;;;10.70;6.82;;;18.20;90.10;;;;;;5092515;28;20024;-76
2021/10/02 08:18:15;;;;;;;11.50;8.80;;;18.20;90.10;;;;;;5092918;28;20020;-75
2021/10/02 08:20:43;;;;;;;13.70;9.10;;;18.20;90.10;;;;;;5092520;28;20511;-75
2021/10/02 08:23:13;;;;;;;16.88;8.68;;;18.30;90.10;;;;;;5092569;28;20040;-77
2021/10/02 08:25:42;;;;;;;17.08;7.97;;;18.30;90.10;;;;;;5092265;28;20024;-77
2021/10/02 08:28:08;;;;;;;11.63;7.43;;;18.30;90.30;;;;;;5091016;28;20046;-77
2021/10/02 08:30:34;;;;;;;13.82;6.55;;;18.30;90.20;;;;;;5092268;28;20027;-76
2021/10/02 08:33:00;;;;;;;12.85;6.82;;;18.30;90.20;;;;;;5091184;28;20399;-75
2021/10/02 08:35:26;;;;;;;12.95;5.85;;;18.40;90.20;;;;;;5092166;28;20099;-76
2021/10/02 08:37:51;;;;;;;10.65;5.88;;;18.40;90.20;;;;;;5092083;28;20027;-75
2021/10/02 08:40:18;;;;;;;8.85;6.10;;;18.40;90.30;;;;;;5090649;28;20073;-75
2021/10/02 08:42:46;;;;;;;9.55;5.72;;;18.40;90.30;;;;;;5092214;28;20024;-73
2021/10/02 08:45:13;;;;;;;9.60;5.03;;;18.40;90.30;;;;;;5090932;28;20016;-74
2021/10/02 08:47:42;;;;;;;9.38;5.53;;;18.40;90.20;;;;;;5091919;28;20145;-74
2021/10/02 08:50:10;;;;;;;8.43;5.88;;;18.50;90.30;;;;;;5092065;28;20057;-75
2021/10/02 08:52:36;;;;;;;7.50;4.97;;;18.50;90.30;;;;;;5091991;28;20028;-77
2021/10/02 08:55:03;;;;;;;6.65;4.07;;;18.50;90.30;;;;;;5092222;28;20022;-75
2021/10/02 08:57:33;;;;;;;8.40;4.15;;;18.50;90.30;;;;;;5090617;28;20116;-73
2021/10/02 09:00:00;;;;;;;7.72;4.20;;;18.50;90.20;;;;;;5089214;28;20016;-74
2021/10/02 09:02:26;;;;;;;9.75;4.45;;;18.50;90.20;;;;;;5090134;28;20013;-75
2021/10/02 09:04:53;;;;;;;13.55;4.07;;;18.60;90.20;;;;;;5090514;28;20030;-74
2021/10/02 09:07:20;;;;;;;9.55;4.43;;;18.60;90.10;;;;;;5090200;28;20020;-74
2021/10/02 09:09:47;;;;;;;10.43;3.92;;;18.60;90.10;;;;;;5090579;28;20086;-76
2021/10/02 09:12:16;;;;;;;6.43;3.38;;;18.60;90.10;;;;;;5090548;28;20044;-76
2021/10/02 09:14:42;;;;;;;7.00;4.05;;;18.60;90.00;;;;;;5088358;28;20020;-74
2021/10/02 09:17:08;;;;;;;6.25;3.17;;;18.70;90.00;;;;;;5091148;28;20069;-74
2021/10/02 09:19:34;;;;;;;8.82;4.32;;;18.70;90.10;;;;;;5090954;28;20433;-74
2021/10/02 09:22:12;;;;;;;4.18;2.97;;;18.70;90.00;;;;;;5090997;28;20521;-74
2021/10/02 09:24:43;;;;;;;5.13;2.95;;;18.70;90.00;;;;;;5089555;28;20135;-73
2021/10/02 09:27:15;;;;;;;5.63;2.88;;;18.70;90.00;;;;;;5090693;28;20024;-75
2021/10/02 09:29:49;;;;;;;5.13;3.10;;;18.80;90.20;;;;;;5089721;28;20068;-74
2021/10/02 09:32:18;;;;;;;;;;;18.80;90.10;;;;;;5090005;28;20495;-75
2021/10/02 09:34:54;;;;;;;5.57;2.65;;;18.80;90.20;;;;;;5091362;28;19904;-73
2021/10/02 09:37:32;;;;;;;10.48;2.67;;;18.80;90.30;;;;;;5089749;28;20028;-73
2021/10/02 09:40:07;;;;;;;8.55;3.15;;;18.90;90.30;;;;;;5089252;28;20483;-75
2021/10/02 09:42:41;;;;;;;4.72;2.60;;;18.90;90.20;;;;;;5090844;28;20107;-75
2021/10/02 09:45:11;;;;;;;9.35;3.17;;;18.90;90.10;;;;;;5090534;28;20521;-77
2021/10/02 09:47:39;;;;;;;6.55;2.60;;;18.90;90.10;;;;;;5089141;28;20020;-75
2021/10/02 09:50:22;;;;;;;7.25;2.70;;;18.90;90.00;;;;;;5091531;28;20407;-79
2021/10/02 09:52:54;;;;;;;6.65;2.58;;;18.90;90.00;;;;;;5091436;28;20032;-76
2021/10/02 09:55:30;;;;;;;7.78;3.00;;;18.90;90.00;;;;;;5089857;28;20507;-77
2021/10/02 09:57:57;;;;;;;7.72;2.20;;;19.00;90.10;;;;;;5089461;28;20506;-81
2021/10/02 10:00:30;;;;;;;12.00;2.95;;;19.00;90.00;;;;;;5090069;28;20024;-78
2021/10/02 10:02:56;;;;;;;8.88;3.03;;;19.10;90.10;;;;;;5091323;28;20110;-76
2021/10/02 10:05:32;;;;;;;5.03;2.20;;;19.10;90.00;;;;;;5090503;28;20024;-77
2021/10/02 10:08:00;;;;;;;3.47;1.95;;;19.10;89.90;;;;;;5089426;28;20036;-78
2021/10/02 10:10:28;;;;;;;4.32;2.05;;;19.10;90.00;;;;;;5089601;28;20030;-77
2021/10/02 10:12:55;;;;;;;11.38;2.40;;;19.10;89.80;;;;;;5088234;28;20036;-79
2021/10/02 10:15:35;;;;;;;8.10;2.53;;;19.10;89.80;;;;;;5093093;28;20016;-79
2021/10/02 10:18:01;;;;;;;5.18;1.63;;;19.20;89.80;;;;;;5091658;28;20394;-81
2021/10/02 10:20:33;;;;;;;10.73;2.25;;;19.20;89.90;;;;;;5094849;28;20020;-82
2021/10/02 10:23:00;;;;;;;4.88;2.17;;;19.20;90.10;;;;;;5093336;28;20039;-85
2021/10/02 10:25:26;;;;;;;5.35;2.28;;;19.20;90.10;;;;;;5093814;28;20392;-82
2021/10/02 10:27:52;;;;;;;5.80;2.30;;;19.20;90.10;;;;;;5094947;28;20039;-81
2021/10/02 10:30:23;;;;;;;7.85;1.90;;;19.20;90.10;;;;;;5094586;28;20475;-82
2021/10/02 10:33:03;;;;;;;7.28;2.33;;;19.20;90.10;;;;;;5094326;28;20059;-81
2021/10/02 10:35:35;;;;;;;5.53;1.88;;;19.20;90.10;;;;;;5094617;28;20099;-77
2021/10/02 10:38:02;;;;;;;7.18;2.22;;;19.20;90.10;;;;;;5092667;28;20024;-78
2021/10/02 10:40:28;;;;;;;9.23;1.85;;;19.20;90.10;;;;;;5094005;28;20012;-76
2021/10/02 10:42:54;;;;;;;5.90;1.83;;;19.20;90.10;;;;;;5094784;28;20024;-76
2021/10/02 10:45:22;;;;;;;4.78;2.05;;;19.20;90.10;;;;;;5094526;28;20028;-76
2021/10/02 10:47:47;;;;;;;6.32;1.60;;;19.20;90.00;;;;;;5094301;28;20020;-80
2021/10/02 10:50:13;;;;;;;5.28;1.80;;;19.30;90.10;;;;;;5094783;28;20106;-78
2021/10/02 10:52:41;;;;;;;8.40;1.67;;;19.30;90.10;;;;;;5094229;28;20032;-75
2021/10/02 10:55:19;;;;;;;4.82;1.48;;;19.30;90.10;;;;;;5094502;28;20407;-75
2021/10/02 10:57:50;;;;;;;4.38;1.25;;;19.30;90.30;;;;;;5094847;28;20480;-75
2021/10/02 11:00:36;;;;;;;6.32;1.60;;;19.30;90.60;;;;;;5094697;28;20035;-75
2021/10/02 11:03:10;;;;;;;3.67;1.42;;;19.30;90.60;;;;;;5085997;28;20036;-73
2021/10/02 11:05:36;;;;;;;4.47;1.40;;;19.30;90.80;;;;;;5093710;28;20226;-76
2021/10/02 11:08:03;;;;;;;6.90;1.48;;;19.30;90.80;;;;;;5094087;28;20123;-76
2021/10/02 11:10:41;;;;;;;5.15;1.65;;;19.30;90.80;;;;;;5093428;28;20553;-78
2021/10/02 11:13:27;;;;;;;7.82;1.67;;;19.30;91.00;;;;;;5094380;28;20525;-79
2021/10/02 11:15:53;;;;;;;;;;;19.40;91.10;;;;;;5090775;28;20044;-80
2021/10/02 11:18:50;;;;;;;4.63;1.50;;;19.40;91.70;;;;;;5093873;28;19904;-82
2021/10/02 11:21:18;;;;;;;4.72;1.70;;;19.30;92.10;;;;;;5094703;28;20104;-81
2021/10/02 11:24:03;;;;;;;8.45;2.00;;;19.40;92.60;;;;;;5095166;28;20019;-79
2021/10/02 11:26:37;;;;;;;6.68;1.90;;;19.40;92.90;;;;;;5092401;28;20028;-77
2021/10/02 11:29:02;;;;;;;6.60;2.03;;;19.50;93.30;;;;;;5093803;28;20046;-75
2021/10/02 11:31:31;;;;;;;6.10;2.10;;;19.50;93.30;;;;;;5093422;28;20107;-75
2021/10/02 11:34:00;;;;;;;10.13;2.33;;;19.50;93.20;;;;;;5093818;28;20028;-75
2021/10/02 11:36:32;;;;;;;6.47;1.90;;;19.50;93.40;;;;;;5093588;28;20082;-76
2021/10/02 11:39:12;;;;;;;5.43;1.90;;;19.60;93.50;;;;;;5093705;28;20054;-76
2021/10/02 11:41:49;;;;;;;4.07;2.00;;;19.60;93.60;;;;;;5093446;28;20441;-76
2021/10/02 11:44:33;;;;;;;11.27;2.28;;;19.60;93.50;;;;;;5093951;28;20437;-76
2021/10/02 11:47:34;;;;;;;11.90;2.50;;;19.60;93.40;;;;;;5093591;28;20496;-76
2021/10/02 11:50:11;;;;;;;6.68;1.90;;;19.60;93.20;;;;;;5091463;28;20032;-76
2021/10/02 11:52:44;;;;;;;9.00;2.30;;;19.60;93.30;;;;;;5093184;28;20507;-77
2021/10/02 11:58:09;;;;;;;7.43;1.77;;;19.60;93.30;;;;;;5092799;28;20020;-79
2021/10/02 12:00:48;;;;;;;6.03;1.77;;;19.60;93.10;;;;;;5093013;28;20022;-80
2021/10/02 12:03:29;;;;;;;15.63;1.98;;;19.60;93.00;;;;;;5092019;28;20032;-79
2021/10/02 12:05:57;;;;;;;18.95;2.92;;;19.70;93.20;;;;;;5092735;28;20089;-81
2021/10/02 12:08:23;;;;;;;4.78;1.70;;;19.70;93.20;;;;;;5092067;28;20032;-80
2021/10/02 12:10:54;;;;;;;4.45;1.88;;;19.70;93.20;;;;;;5092280;28;20391;-79
2021/10/02 12:13:28;;;;;;;6.95;1.63;;;19.70;93.10;;;;;;5092092;28;20031;-78
2021/10/02 12:16:03;;;;;;;9.02;1.95;;;19.70;92.80;;;;;;5091045;28;20019;-79
2021/10/02 12:18:49;;;;;;;7.93;1.77;;;19.70;93.00;;;;;;5089044;28;20032;-78
2021/10/02 12:21:23;;;;;;;;;;;19.70;93.00;;;;;;5093506;28;20030;-80
2021/10/02 12:23:54;;;;;;;12.63;4.07;;;19.70;93.20;;;;;;5092367;28;19962;-76
2021/10/02 12:26:19;;;;;;;11.10;4.18;;;19.70;93.30;;;;;;5092531;28;20085;-78
2021/10/02 12:28:45;;;;;;;13.52;5.15;;;19.70;93.20;;;;;;5092636;28;20032;-78
2021/10/02 12:31:11;;;;;;;6.35;3.58;;;19.70;93.50;;;;;;5091779;28;20028;-77
2021/10/02 12:33:36;;;;;;;11.00;4.10;;;19.70;93.60;;;;;;5090022;28;20036;-78
2021/10/02 12:36:02;;;;;;;9.98;4.45;;;19.70;93.70;;;;;;5089952;28;20044;-79
2021/10/02 12:38:45;;;;;;;10.35;3.33;;;19.70;93.60;;;;;;5090771;28;20391;-79
2021/10/02 12:41:10;;;;;;;15.45;3.75;;;19.70;93.50;;;;;;5090393;28;20082;-78
2021/10/02 12:43:36;;;;;;;6.05;2.45;;;19.70;93.30;;;;;;5089923;28;20036;-79
2021/10/02 12:46:15;;;;;;;6.68;3.22;;;19.70;93.60;;;;;;5087928;28;20110;-78
2021/10/02 12:48:42;;;;;;;8.23;2.67;;;19.70;93.50;;;;;;5091927;28;20039;-78
2021/10/02 12:51:09;;;;;;;7.80;3.38;;;19.70;93.40;;;;;;5091952;28;20039;-80
2021/10/02 12:53:37;;;;;;;7.97;2.30;;;19.70;93.30;;;;;;5090855;28;20095;-79
2021/10/02 12:56:16;;;;;;;7.57;2.58;;;19.70;93.20;;;;;;5090380;28;20542;-77
2021/10/02 12:58:42;;;;;;;6.60;2.50;;;19.70;93.00;;;;;;5091189;28;20031;-78
2021/10/02 13:01:09;;;;;;;10.43;2.55;;;19.70;93.00;;;;;;5091702;28;20024;-78
2021/10/02 13:03:39;;;;;;;9.50;2.38;;;19.70;92.90;;;;;;5091417;28;20076;-79
2021/10/02 13:06:05;;;;;;;4.93;2.28;;;19.70;92.90;;;;;;5091890;28;20039;-79
2021/10/02 13:08:31;;;;;;;4.13;2.08;;;19.70;92.90;;;;;;5091756;28;20020;-81
2021/10/02 13:10:57;;;;;;;5.82;2.40;;;19.60;92.80;;;;;;5091653;28;20107;-81
2021/10/02 13:13:23;;;;;;;9.23;2.28;;;19.60;92.80;;;;;;5091368;28;20051;-79
2021/10/02 13:15:58;;;;;;;3.75;1.92;;;19.60;92.70;;;;;;5090176;28;20499;-79
2021/10/02 13:18:29;;;;;;;5.60;2.50;;;19.60;92.60;;;;;;5090730;28;20081;-80
2021/10/02 13:21:03;;;;;;;8.95;2.22;;;19.60;92.60;;;;;;5088643;28;20023;-80
2021/10/02 13:23:31;;;;;;;6.85;2.05;;;19.60;92.60;;;;;;5089977;28;20032;-81
2021/10/02 13:26:08;;;;;;;3.38;1.77;;;19.60;92.50;;;;;;5089645;28;20042;-80
2021/10/02 13:28:35;;;;;;;4.78;1.88;;;19.60;92.50;;;;;;5089302;28;20117;-79
2021/10/02 13:31:31;;;;;;;4.15;1.73;;;19.60;92.50;;;;;;5091498;28;20032;-78
2021/10/02 13:34:06;;;;;;;6.10;1.90;;;19.60;92.40;;;;;;5091766;28;20035;-80
2021/10/02 13:36:34;;;;;;;5.38;1.60;;;19.60;92.30;;;;;;5091289;28;20024;-80
2021/10/02 13:39:08;;;;;;;6.28;1.77;;;19.50;92.30;;;;;;5091186;28;20073;-80
2021/10/02 13:41:34;;;;;;;4.07;1.63;;;19.50;92.40;;;;;;5091079;28;20397;-80
2021/10/02 13:44:02;;;;;;;6.72;1.83;;;19.50;92.40;;;;;;5090191;28;20032;-80
2021/10/02 13:46:40;;;;;;;3.38;1.48;;;19.50;92.40;;;;;;5090972;28;20065;-80
2021/10/02 13:49:08;;;;;;;4.07;1.75;;;19.50;92.40;;;;;;5090935;28;20123;-80
2021/10/02 13:51:34;;;;;;;5.35;1.80;;;19.50;92.40;;;;;;5089955;28;20038;-78
2021/10/02 13:54:00;;;;;;;5.53;1.65;;;19.50;92.40;;;;;;5090614;28;20017;-78